Time,TemperatureF,DewpointF,PressureIn,WindDirection,WindDirectionDegrees,WindSpeedMPH,WindSpeedGustMPH,Humidity,HourlyPrecipIn,Conditions,Clouds,dailyrainin,SoftwareType,DateUTC
2013-12-31 01:43:00,30.0,15.0,-100.00,North,0,7.0,11.0,52,-99.99,,,-99.99,,2013-12-31 06:43:00,
2013-12-31 02:42:00,30.0,16.0,-100.00,North,5,3.0,6.0,56,-99.99,,,-99.99,,2013-12-31 07:42:00,
2013-12-31 07:22:00,28.0,13.0,-100.00,West,275,1.0,2.0,53,-99.99,,,-99.99,,2013-12-31 12:22:00,
2013-12-31 07:42:00,28.0,15.0,-100.00,WSW,255,1.0,3.0,56,-99.99,,,-99.99,,2013-12-31 12:42:00,
2013-12-31 07:52:00,28.0,14.0,-100.00,West,260,2.0,4.0,56,-99.99,,,-99.99,,2013-12-31 12:52:00,
2013-12-31 08:22:00,28.0,14.0,-100.00,WSW,250,2.0,4.0,55,-99.99,,,-99.99,,2013-12-31 13:22:00,
2013-12-31 09:23:00,30.0,14.0,-100.00,South,185,3.0,5.0,51,-99.99,,,-99.99,,2013-12-31 14:23:00,
2013-12-31 10:22:00,31.0,15.0,-100.00,SW,220,7.0,11.0,52,-99.99,,,-99.99,,2013-12-31 15:22:00,
2013-12-31 10:53:00,32.0,17.0,-100.00,South,190,6.0,11.0,53,-99.99,,,-99.99,,2013-12-31 15:53:00,
2013-12-31 15:11:00,38.0,28.0,-100.00,WSW,240,8.0,18.0,68,-99.99,,,-99.99,,2013-12-31 20:11:00,
2013-12-31 15:22:00,38.0,28.0,-100.00,SW,235,11.0,21.0,68,-99.99,,,-99.99,,2013-12-31 20:22:00,
2013-12-31 15:42:00,39.0,28.0,-100.00,West,260,11.0,20.0,65,-99.99,,,-99.99,,2013-12-31 20:42:00,
2013-12-31 16:22:00,39.0,24.0,-100.00,West,270,14.0,23.0,55,-99.99,,,-99.99,,2013-12-31 21:22:00,
2013-12-31 17:23:00,37.0,18.0,-100.00,NW,305,9.0,18.0,46,-99.99,,,-99.99,,2013-12-31 22:23:00,
2013-12-31 18:22:00,35.0,16.0,-100.00,NW,305,9.0,21.0,44,-99.99,,,-99.99,,2013-12-31 23:22:00,
2013-12-31 21:12:00,30.0,15.0,-100.00,NW,305,7.0,14.0,52,-99.99,,,-99.99,,2014-01-01 02:12:00,
2013-12-31 21:42:00,30.0,15.0,-100.00,West,275,2.0,9.0,53,-99.99,,,-99.99,,2014-01-01 02:42:00,
2013-12-31 22:12:00,30.0,15.0,-100.00,WNW,290,4.0,8.0,54,-99.99,,,-99.99,,2014-01-01 03:12:00,
2013-12-31 22:44:00,29.0,15.0,-100.00,WNW,290,2.0,8.0,56,-99.99,,,-99.99,,2014-01-01 03:44:00,
2013-12-31 23:13:00,29.0,15.0,-100.00,NW,305,5.0,9.0,56,-99.99,,,-99.99,,2014-01-01 04:13:00,
2013-12-31 23:23:00,29.0,15.0,-100.00,NW,315,5.0,10.0,55,-99.99,,,-99.99,,2014-01-01 04:23:00,